sensor_id;sensor_type;location;lat;lon;timestamp;temperature;humidity
9802;DHT22;4940;50.900;4.672;2022-08-21T00:01:18;16.80;99.90
9802;DHT22;4940;50.900;4.672;2022-08-21T00:03:46;16.70;99.90
9802;DHT22;4940;50.900;4.672;2022-08-21T00:06:13;16.80;99.90
9802;DHT22;4940;50.900;4.672;2022-08-21T00:08:41;16.60;99.90
9802;DHT22;4940;50.900;4.672;2022-08-21T00:11:10;16.70;99.90
9802;DHT22;4940;50.900;4.672;2022-08-21T00:16:05;16.70;99.90
9802;DHT22;4940;50.900;4.672;2022-08-21T00:18:33;16.60;99.90
9802;DHT22;4940;50.900;4.672;2022-08-21T00:23:28;16.60;99.90
9802;DHT22;4940;50.900;4.672;2022-08-21T00:25:56;16.60;99.90
9802;DHT22;4940;50.900;4.672;2022-08-21T00:28:27;16.60;99.90
9802;DHT22;4940;50.900;4.672;2022-08-21T00:30:55;16.50;99.90
9802;DHT22;4940;50.900;4.672;2022-08-21T00:33:23;16.50;99.90
9802;DHT22;4940;50.900;4.672;2022-08-21T00:35:51;16.50;99.90
9802;DHT22;4940;50.900;4.672;2022-08-21T00:38:20;16.50;99.90
9802;DHT22;4940;50.900;4.672;2022-08-21T00:40:50;16.50;99.90
9802;DHT22;4940;50.900;4.672;2022-08-21T00:43:21;16.40;99.90
9802;DHT22;4940;50.900;4.672;2022-08-21T00:45:50;16.40;99.90
9802;DHT22;4940;50.900;4.672;2022-08-21T00:48:18;16.30;99.90
9802;DHT22;4940;50.900;4.672;2022-08-21T00:50:50;16.30;99.90
9802;DHT22;4940;50.900;4.672;2022-08-21T00:53:19;16.30;99.90
9802;DHT22;4940;50.900;4.672;2022-08-21T00:55:47;16.30;99.90
9802;DHT22;4940;50.900;4.672;2022-08-21T00:58:15;16.20;99.90
9802;DHT22;4940;50.900;4.672;2022-08-21T01:00:49;16.20;99.90
9802;DHT22;4940;50.900;4.672;2022-08-21T01:03:21;16.20;99.90
9802;DHT22;4940;50.900;4.672;2022-08-21T01:05:49;16.10;99.90
9802;DHT22;4940;50.900;4.672;2022-08-21T01:08:17;16.10;99.90
9802;DHT22;4940;50.900;4.672;2022-08-21T01:10:46;16.10;99.90
9802;DHT22;4940;50.900;4.672;2022-08-21T01:13:16;16.10;99.90
9802;DHT22;4940;50.900;4.672;2022-08-21T01:15:46;16.00;99.90
9802;DHT22;4940;50.900;4.672;2022-08-21T01:18:15;16.10;99.90
9802;DHT22;4940;50.900;4.672;2022-08-21T01:21:01;16.00;99.90
9802;DHT22;4940;50.900;4.672;2022-08-21T01:23:29;16.00;99.90
9802;DHT22;4940;50.900;4.672;2022-08-21T01:25:56;15.50;99.90
9802;DHT22;4940;50.900;4.672;2022-08-21T01:28:24;15.90;99.90
9802;DHT22;4940;50.900;4.672;2022-08-21T01:30:52;15.90;99.90
9802;DHT22;4940;50.900;4.672;2022-08-21T01:33:22;15.90;99.90
9802;DHT22;4940;50.900;4.672;2022-08-21T01:38:20;15.80;99.90
9802;DHT22;4940;50.900;4.672;2022-08-21T01:40:47;15.80;99.90
9802;DHT22;4940;50.900;4.672;2022-08-21T01:43:14;15.80;99.90
9802;DHT22;4940;50.900;4.672;2022-08-21T01:45:42;15.70;99.90
9802;DHT22;4940;50.900;4.672;2022-08-21T01:50:37;15.70;99.90
9802;DHT22;4940;50.900;4.672;2022-08-21T01:55:33;15.60;99.90
9802;DHT22;4940;50.900;4.672;2022-08-21T02:00:28;15.50;99.90
9802;DHT22;4940;50.900;4.672;2022-08-21T02:02:55;19.20;99.90
9802;DHT22;4940;50.900;4.672;2022-08-21T02:05:23;15.50;99.90
9802;DHT22;4940;50.900;4.672;2022-08-21T02:07:52;15.50;99.90
9802;DHT22;4940;50.900;4.672;2022-08-21T02:10:22;15.70;99.90
9802;DHT22;4940;50.900;4.672;2022-08-21T02:12:51;15.40;99.90
9802;DHT22;4940;50.900;4.672;2022-08-21T02:15:18;15.40;99.90
9802;DHT22;4940;50.900;4.672;2022-08-21T02:17:49;15.40;99.90
9802;DHT22;4940;50.900;4.672;2022-08-21T02:20:19;15.50;99.90
9802;DHT22;4940;50.900;4.672;2022-08-21T02:22:47;15.40;99.90
9802;DHT22;4940;50.900;4.672;2022-08-21T02:25:15;15.30;99.90
9802;DHT22;4940;50.900;4.672;2022-08-21T02:27:44;15.30;99.90
9802;DHT22;4940;50.900;4.672;2022-08-21T02:30:16;15.30;99.90
9802;DHT22;4940;50.900;4.672;2022-08-21T02:32:43;15.30;99.90
9802;DHT22;4940;50.900;4.672;2022-08-21T02:35:11;15.20;99.90
9802;DHT22;4940;50.900;4.672;2022-08-21T02:37:47;15.20;99.90
9802;DHT22;4940;50.900;4.672;2022-08-21T02:40:14;15.20;99.90
9802;DHT22;4940;50.900;4.672;2022-08-21T02:42:42;15.20;99.90
9802;DHT22;4940;50.900;4.672;2022-08-21T02:45:10;15.20;99.90
9802;DHT22;4940;50.900;4.672;2022-08-21T02:47:39;15.20;99.90
9802;DHT22;4940;50.900;4.672;2022-08-21T02:50:07;15.10;99.90
9802;DHT22;4940;50.900;4.672;2022-08-21T02:52:34;15.10;99.90
9802;DHT22;4940;50.900;4.672;2022-08-21T02:55:02;15.10;99.90
9802;DHT22;4940;50.900;4.672;2022-08-21T02:57:30;15.00;99.90
9802;DHT22;4940;50.900;4.672;2022-08-21T02:59:58;15.00;99.90
9802;DHT22;4940;50.900;4.672;2022-08-21T03:02:25;15.00;99.90
9802;DHT22;4940;50.900;4.672;2022-08-21T03:04:54;15.00;99.90
9802;DHT22;4940;50.900;4.672;2022-08-21T03:07:21;14.90;99.90
9802;DHT22;4940;50.900;4.672;2022-08-21T03:09:49;14.90;99.90
9802;DHT22;4940;50.900;4.672;2022-08-21T03:12:16;15.00;99.90
9802;DHT22;4940;50.900;4.672;2022-08-21T03:14:44;14.90;99.90
9802;DHT22;4940;50.900;4.672;2022-08-21T03:17:11;14.90;99.90
9802;DHT22;4940;50.900;4.672;2022-08-21T03:19:38;14.90;99.90
9802;DHT22;4940;50.900;4.672;2022-08-21T03:22:07;14.90;99.90
9802;DHT22;4940;50.900;4.672;2022-08-21T03:24:34;14.80;99.90
9802;DHT22;4940;50.900;4.672;2022-08-21T03:27:02;14.80;99.90
9802;DHT22;4940;50.900;4.672;2022-08-21T03:29:29;14.80;99.90
9802;DHT22;4940;50.900;4.672;2022-08-21T03:34:24;14.80;99.90
9802;DHT22;4940;50.900;4.672;2022-08-21T03:36:51;14.70;99.90
9802;DHT22;4940;50.900;4.672;2022-08-21T03:39:20;14.80;99.90
9802;DHT22;4940;50.900;4.672;2022-08-21T03:41:47;14.70;99.90
9802;DHT22;4940;50.900;4.672;2022-08-21T03:44:15;14.70;99.90
9802;DHT22;4940;50.900;4.672;2022-08-21T03:46:42;14.70;99.90
9802;DHT22;4940;50.900;4.672;2022-08-21T03:49:09;14.70;99.90
9802;DHT22;4940;50.900;4.672;2022-08-21T03:51:38;14.70;99.90
9802;DHT22;4940;50.900;4.672;2022-08-21T03:54:05;14.70;99.90
9802;DHT22;4940;50.900;4.672;2022-08-21T03:56:34;14.80;99.90
9802;DHT22;4940;50.900;4.672;2022-08-21T03:59:01;14.90;99.90
9802;DHT22;4940;50.900;4.672;2022-08-21T04:01:29;14.50;99.90
9802;DHT22;4940;50.900;4.672;2022-08-21T04:03:57;14.70;99.90
9802;DHT22;4940;50.900;4.672;2022-08-21T04:06:24;14.70;99.90
9802;DHT22;4940;50.900;4.672;2022-08-21T04:08:52;14.70;99.90
9802;DHT22;4940;50.900;4.672;2022-08-21T04:11:19;14.70;99.90
9802;DHT22;4940;50.900;4.672;2022-08-21T04:13:48;14.60;99.90
9802;DHT22;4940;50.900;4.672;2022-08-21T04:16:15;14.60;99.90
9802;DHT22;4940;50.900;4.672;2022-08-21T04:18:42;14.50;99.90
9802;DHT22;4940;50.900;4.672;2022-08-21T04:21:11;14.60;99.90
9802;DHT22;4940;50.900;4.672;2022-08-21T04:23:38;14.50;99.90
9802;DHT22;4940;50.900;4.672;2022-08-21T04:26:06;14.60;99.90
9802;DHT22;4940;50.900;4.672;2022-08-21T04:28:33;14.60;99.90
9802;DHT22;4940;50.900;4.672;2022-08-21T04:31:02;14.60;99.90
9802;DHT22;4940;50.900;4.672;2022-08-21T04:33:29;14.50;99.90
9802;DHT22;4940;50.900;4.672;2022-08-21T04:35:56;14.50;99.90
9802;DHT22;4940;50.900;4.672;2022-08-21T04:38:23;14.50;99.90
9802;DHT22;4940;50.900;4.672;2022-08-21T04:40:52;14.40;99.90
9802;DHT22;4940;50.900;4.672;2022-08-21T04:43:19;14.40;99.90
9802;DHT22;4940;50.900;4.672;2022-08-21T04:45:49;14.40;99.90
9802;DHT22;4940;50.900;4.672;2022-08-21T04:48:20;14.40;99.90
9802;DHT22;4940;50.900;4.672;2022-08-21T04:50:51;14.40;99.90
9802;DHT22;4940;50.900;4.672;2022-08-21T04:53:22;14.40;99.90
9802;DHT22;4940;50.900;4.672;2022-08-21T04:55:52;14.30;99.90
9802;DHT22;4940;50.900;4.672;2022-08-21T04:58:23;14.30;99.90
9802;DHT22;4940;50.900;4.672;2022-08-21T05:00:52;14.30;99.90
9802;DHT22;4940;50.900;4.672;2022-08-21T05:03:22;14.30;99.90
9802;DHT22;4940;50.900;4.672;2022-08-21T05:05:50;14.30;99.90
9802;DHT22;4940;50.900;4.672;2022-08-21T05:08:19;14.40;99.90
9802;DHT22;4940;50.900;4.672;2022-08-21T05:10:49;14.40;99.90
9802;DHT22;4940;50.900;4.672;2022-08-21T05:13:17;14.40;99.90
9802;DHT22;4940;50.900;4.672;2022-08-21T05:15:44;14.40;99.90
9802;DHT22;4940;50.900;4.672;2022-08-21T05:18:11;14.40;99.90
9802;DHT22;4940;50.900;4.672;2022-08-21T05:20:40;14.40;99.90
9802;DHT22;4940;50.900;4.672;2022-08-21T05:23:09;14.40;99.90
9802;DHT22;4940;50.900;4.672;2022-08-21T05:25:36;14.40;99.90
9802;DHT22;4940;50.900;4.672;2022-08-21T05:28:04;14.40;99.90
9802;DHT22;4940;50.900;4.672;2022-08-21T05:30:32;14.40;99.90
9802;DHT22;4940;50.900;4.672;2022-08-21T05:33:01;14.50;99.90
9802;DHT22;4940;50.900;4.672;2022-08-21T05:35:29;14.60;99.90
9802;DHT22;4940;50.900;4.672;2022-08-21T05:37:58;14.60;99.90
9802;DHT22;4940;50.900;4.672;2022-08-21T05:40:25;14.70;99.90
9802;DHT22;4940;50.900;4.672;2022-08-21T05:42:54;14.80;99.90
9802;DHT22;4940;50.900;4.672;2022-08-21T05:45:22;14.90;99.90
9802;DHT22;4940;50.900;4.672;2022-08-21T05:47:49;15.00;99.90
9802;DHT22;4940;50.900;4.672;2022-08-21T05:50:17;14.90;99.90
9802;DHT22;4940;50.900;4.672;2022-08-21T05:52:45;15.10;99.90
9802;DHT22;4940;50.900;4.672;2022-08-21T05:55:13;15.30;99.90
9802;DHT22;4940;50.900;4.672;2022-08-21T05:57:40;15.40;99.90
9802;DHT22;4940;50.900;4.672;2022-08-21T06:00:09;15.40;99.90
9802;DHT22;4940;50.900;4.672;2022-08-21T06:02:38;15.50;99.90
9802;DHT22;4940;50.900;4.672;2022-08-21T06:05:06;15.60;99.90
9802;DHT22;4940;50.900;4.672;2022-08-21T06:07:33;15.60;99.90
9802;DHT22;4940;50.900;4.672;2022-08-21T06:10:00;15.80;99.90
9802;DHT22;4940;50.900;4.672;2022-08-21T06:12:29;16.20;99.90
9802;DHT22;4940;50.900;4.672;2022-08-21T06:14:56;16.30;99.90
9802;DHT22;4940;50.900;4.672;2022-08-21T06:17:23;16.70;99.90
9802;DHT22;4940;50.900;4.672;2022-08-21T06:19:51;17.50;99.90
9802;DHT22;4940;50.900;4.672;2022-08-21T06:22:20;18.40;99.90
9802;DHT22;4940;50.900;4.672;2022-08-21T06:24:47;18.80;99.90
9802;DHT22;4940;50.900;4.672;2022-08-21T06:27:15;18.80;99.90
9802;DHT22;4940;50.900;4.672;2022-08-21T06:29:45;18.90;99.90
9802;DHT22;4940;50.900;4.672;2022-08-21T06:32:12;19.00;99.90
9802;DHT22;4940;50.900;4.672;2022-08-21T06:34:40;19.00;99.90
9802;DHT22;4940;50.900;4.672;2022-08-21T06:37:08;18.10;99.90
9802;DHT22;4940;50.900;4.672;2022-08-21T06:39:35;18.60;99.90
9802;DHT22;4940;50.900;4.672;2022-08-21T06:42:03;18.60;99.90
9802;DHT22;4940;50.900;4.672;2022-08-21T06:44:31;18.50;99.90
9802;DHT22;4940;50.900;4.672;2022-08-21T06:46:59;18.40;99.90
9802;DHT22;4940;50.900;4.672;2022-08-21T06:49:26;18.40;99.90
9802;DHT22;4940;50.900;4.672;2022-08-21T06:51:54;18.30;99.90
9802;DHT22;4940;50.900;4.672;2022-08-21T06:54:21;18.20;99.90
9802;DHT22;4940;50.900;4.672;2022-08-21T06:56:49;18.20;99.90
9802;DHT22;4940;50.900;4.672;2022-08-21T06:59:16;18.20;99.90
9802;DHT22;4940;50.900;4.672;2022-08-21T07:01:43;18.10;99.90
9802;DHT22;4940;50.900;4.672;2022-08-21T07:04:12;18.20;99.90
9802;DHT22;4940;50.900;4.672;2022-08-21T07:06:39;18.20;99.90
9802;DHT22;4940;50.900;4.672;2022-08-21T07:09:07;18.20;99.90
9802;DHT22;4940;50.900;4.672;2022-08-21T07:14:03;18.30;99.90
9802;DHT22;4940;50.900;4.672;2022-08-21T07:16:31;18.30;99.90
9802;DHT22;4940;50.900;4.672;2022-08-21T07:18:58;18.30;99.90
9802;DHT22;4940;50.900;4.672;2022-08-21T07:21:26;18.40;99.90
9802;DHT22;4940;50.900;4.672;2022-08-21T07:23:54;18.40;99.90
9802;DHT22;4940;50.900;4.672;2022-08-21T07:26:23;18.40;99.90
9802;DHT22;4940;50.900;4.672;2022-08-21T07:28:50;18.50;99.90
9802;DHT22;4940;50.900;4.672;2022-08-21T07:31:23;18.60;99.90
9802;DHT22;4940;50.900;4.672;2022-08-21T07:33:51;18.90;99.90
9802;DHT22;4940;50.900;4.672;2022-08-21T07:36:18;18.90;99.90
9802;DHT22;4940;50.900;4.672;2022-08-21T07:38:47;19.80;99.90
9802;DHT22;4940;50.900;4.672;2022-08-21T07:41:17;20.60;99.90
9802;DHT22;4940;50.900;4.672;2022-08-21T07:43:45;21.40;99.90
9802;DHT22;4940;50.900;4.672;2022-08-21T07:46:13;22.20;99.90
9802;DHT22;4940;50.900;4.672;2022-08-21T07:48:40;22.20;99.90
9802;DHT22;4940;50.900;4.672;2022-08-21T07:51:10;23.70;99.90
9802;DHT22;4940;50.900;4.672;2022-08-21T07:53:38;24.20;99.90
9802;DHT22;4940;50.900;4.672;2022-08-21T07:56:07;24.70;99.90
9802;DHT22;4940;50.900;4.672;2022-08-21T07:58:36;25.90;99.90
9802;DHT22;4940;50.900;4.672;2022-08-21T08:01:05;25.80;99.90
9802;DHT22;4940;50.900;4.672;2022-08-21T08:03:32;26.40;99.90
9802;DHT22;4940;50.900;4.672;2022-08-21T08:06:00;26.30;99.90
9802;DHT22;4940;50.900;4.672;2022-08-21T08:08:30;27.40;99.90
9802;DHT22;4940;50.900;4.672;2022-08-21T08:10:58;27.50;99.90
9802;DHT22;4940;50.900;4.672;2022-08-21T08:13:27;28.10;99.90
9802;DHT22;4940;50.900;4.672;2022-08-21T08:15:55;28.80;99.20
9802;DHT22;4940;50.900;4.672;2022-08-21T08:18:22;29.20;98.70
9802;DHT22;4940;50.900;4.672;2022-08-21T08:20:49;29.50;98.10
9802;DHT22;4940;50.900;4.672;2022-08-21T08:23:16;29.90;96.00
9802;DHT22;4940;50.900;4.672;2022-08-21T08:25:44;30.30;95.50
9802;DHT22;4940;50.900;4.672;2022-08-21T08:28:11;30.20;95.20
9802;DHT22;4940;50.900;4.672;2022-08-21T08:30:40;30.20;94.70
9802;DHT22;4940;50.900;4.672;2022-08-21T08:33:08;30.30;93.80
9802;DHT22;4940;50.900;4.672;2022-08-21T08:35:35;28.90;92.80
9802;DHT22;4940;50.900;4.672;2022-08-21T08:38:03;30.10;92.50
9802;DHT22;4940;50.900;4.672;2022-08-21T08:40:35;30.10;92.50
9802;DHT22;4940;50.900;4.672;2022-08-21T08:43:06;30.00;91.20
9802;DHT22;4940;50.900;4.672;2022-08-21T08:45:37;30.10;91.30
9802;DHT22;4940;50.900;4.672;2022-08-21T08:48:10;30.10;91.60
9802;DHT22;4940;50.900;4.672;2022-08-21T08:50:41;30.00;91.90
9802;DHT22;4940;50.900;4.672;2022-08-21T08:53:15;30.10;91.50
9802;DHT22;4940;50.900;4.672;2022-08-21T08:55:45;30.10;91.50
9802;DHT22;4940;50.900;4.672;2022-08-21T08:58:16;30.30;91.30
9802;DHT22;4940;50.900;4.672;2022-08-21T09:00:47;30.50;91.00
9802;DHT22;4940;50.900;4.672;2022-08-21T09:03:17;30.80;91.00
9802;DHT22;4940;50.900;4.672;2022-08-21T09:05:48;30.80;91.10
9802;DHT22;4940;50.900;4.672;2022-08-21T09:08:28;31.30;90.50
9802;DHT22;4940;50.900;4.672;2022-08-21T09:11:02;31.50;89.60
9802;DHT22;4940;50.900;4.672;2022-08-21T09:13:40;31.50;88.80
9802;DHT22;4940;50.900;4.672;2022-08-21T09:16:29;32.00;87.50
9802;DHT22;4940;50.900;4.672;2022-08-21T09:19:04;32.00;87.00
9802;DHT22;4940;50.900;4.672;2022-08-21T09:21:40;32.00;87.10
9802;DHT22;4940;50.900;4.672;2022-08-21T09:24:21;32.10;84.80
9802;DHT22;4940;50.900;4.672;2022-08-21T09:26:53;32.20;84.40
9802;DHT22;4940;50.900;4.672;2022-08-21T09:29:26;32.20;84.60
9802;DHT22;4940;50.900;4.672;2022-08-21T09:31:55;32.40;84.40
9802;DHT22;4940;50.900;4.672;2022-08-21T09:34:28;32.20;82.50
9802;DHT22;4940;50.900;4.672;2022-08-21T09:36:56;32.30;82.60
9802;DHT22;4940;50.900;4.672;2022-08-21T09:39:25;32.30;82.50
9802;DHT22;4940;50.900;4.672;2022-08-21T09:41:58;32.30;83.00
9802;DHT22;4940;50.900;4.672;2022-08-21T09:44:27;32.30;82.20
9802;DHT22;4940;50.900;4.672;2022-08-21T09:46:55;32.40;82.30
9802;DHT22;4940;50.900;4.672;2022-08-21T09:49:31;29.60;80.60
9802;DHT22;4940;50.900;4.672;2022-08-21T09:52:00;32.80;82.60
9802;DHT22;4940;50.900;4.672;2022-08-21T09:54:31;33.10;81.90
9802;DHT22;4940;50.900;4.672;2022-08-21T09:57:00;33.30;81.80
9802;DHT22;4940;50.900;4.672;2022-08-21T09:59:49;33.20;80.90
9802;DHT22;4940;50.900;4.672;2022-08-21T10:02:24;33.50;80.00
9802;DHT22;4940;50.900;4.672;2022-08-21T10:04:55;33.50;78.00
9802;DHT22;4940;50.900;4.672;2022-08-21T10:07:26;33.50;78.10
9802;DHT22;4940;50.900;4.672;2022-08-21T10:10:03;33.30;77.40
9802;DHT22;4940;50.900;4.672;2022-08-21T10:12:40;32.60;76.20
9802;DHT22;4940;50.900;4.672;2022-08-21T10:15:16;32.30;75.90
9802;DHT22;4940;50.900;4.672;2022-08-21T10:17:54;31.90;77.10
9802;DHT22;4940;50.900;4.672;2022-08-21T10:20:31;30.40;75.80
9802;DHT22;4940;50.900;4.672;2022-08-21T10:23:10;31.60;77.40
9802;DHT22;4940;50.900;4.672;2022-08-21T10:25:43;31.20;77.70
9802;DHT22;4940;50.900;4.672;2022-08-21T10:28:23;30.70;78.40
9802;DHT22;4940;50.900;4.672;2022-08-21T10:31:00;30.70;78.90
9802;DHT22;4940;50.900;4.672;2022-08-21T10:33:38;30.40;79.60
9802;DHT22;4940;50.900;4.672;2022-08-21T10:36:15;30.30;80.80
9802;DHT22;4940;50.900;4.672;2022-08-21T10:39:02;31.80;81.30
9802;DHT22;4940;50.900;4.672;2022-08-21T10:41:43;31.00;80.80
9802;DHT22;4940;50.900;4.672;2022-08-21T10:44:23;31.10;80.50
9802;DHT22;4940;50.900;4.672;2022-08-21T10:46:59;31.00;79.80
9802;DHT22;4940;50.900;4.672;2022-08-21T10:49:36;31.00;79.40
9802;DHT22;4940;50.900;4.672;2022-08-21T10:52:28;31.00;80.10
9802;DHT22;4940;50.900;4.672;2022-08-21T10:55:00;31.50;79.90
9802;DHT22;4940;50.900;4.672;2022-08-21T10:57:36;31.20;79.30
9802;DHT22;4940;50.900;4.672;2022-08-21T11:00:07;31.20;78.90
9802;DHT22;4940;50.900;4.672;2022-08-21T11:02:40;31.00;78.90
9802;DHT22;4940;50.900;4.672;2022-08-21T11:05:13;30.90;79.00
9802;DHT22;4940;50.900;4.672;2022-08-21T11:07:48;30.80;79.40
9802;DHT22;4940;50.900;4.672;2022-08-21T11:10:21;30.70;80.20
9802;DHT22;4940;50.900;4.672;2022-08-21T11:12:52;30.80;81.30
9802;DHT22;4940;50.900;4.672;2022-08-21T11:15:28;31.10;80.90
9802;DHT22;4940;50.900;4.672;2022-08-21T11:18:14;31.20;80.50
9802;DHT22;4940;50.900;4.672;2022-08-21T11:20:49;31.30;80.60
9802;DHT22;4940;50.900;4.672;2022-08-21T11:23:22;31.70;80.20
9802;DHT22;4940;50.900;4.672;2022-08-21T11:25:55;31.80;80.40
9802;DHT22;4940;50.900;4.672;2022-08-21T11:28:28;32.00;79.60
9802;DHT22;4940;50.900;4.672;2022-08-21T11:31:02;32.20;78.90
9802;DHT22;4940;50.900;4.672;2022-08-21T11:33:47;32.30;78.60
9802;DHT22;4940;50.900;4.672;2022-08-21T11:36:23;32.30;76.10
9802;DHT22;4940;50.900;4.672;2022-08-21T11:39:12;32.20;77.30
9802;DHT22;4940;50.900;4.672;2022-08-21T11:41:50;32.00;76.30
9802;DHT22;4940;50.900;4.672;2022-08-21T11:44:26;31.80;75.80
9802;DHT22;4940;50.900;4.672;2022-08-21T11:47:04;31.30;76.00
9802;DHT22;4940;50.900;4.672;2022-08-21T11:49:49;30.80;76.50
9802;DHT22;4940;50.900;4.672;2022-08-21T11:52:22;30.70;77.10
9802;DHT22;4940;50.900;4.672;2022-08-21T11:54:56;30.70;80.30
9802;DHT22;4940;50.900;4.672;2022-08-21T11:57:27;30.70;78.90
9802;DHT22;4940;50.900;4.672;2022-08-21T12:00:00;30.90;79.30
9802;DHT22;4940;50.900;4.672;2022-08-21T12:02:33;31.00;78.50
9802;DHT22;4940;50.900;4.672;2022-08-21T12:05:04;31.10;78.00
9802;DHT22;4940;50.900;4.672;2022-08-21T12:07:35;31.20;76.30
9802;DHT22;4940;50.900;4.672;2022-08-21T12:10:07;31.20;76.60
9802;DHT22;4940;50.900;4.672;2022-08-21T12:12:36;31.30;75.70
9802;DHT22;4940;50.900;4.672;2022-08-21T12:15:24;31.20;75.40
9802;DHT22;4940;50.900;4.672;2022-08-21T12:17:54;31.00;74.90
9802;DHT22;4940;50.900;4.672;2022-08-21T12:20:42;31.00;75.00
9802;DHT22;4940;50.900;4.672;2022-08-21T12:23:19;30.70;75.10
9802;DHT22;4940;50.900;4.672;2022-08-21T12:26:02;30.70;75.60
9802;DHT22;4940;50.900;4.672;2022-08-21T12:28:31;30.70;75.70
9802;DHT22;4940;50.900;4.672;2022-08-21T12:30:58;30.60;76.10
9802;DHT22;4940;50.900;4.672;2022-08-21T12:33:28;30.80;76.80
9802;DHT22;4940;50.900;4.672;2022-08-21T12:36:03;30.90;75.30
9802;DHT22;4940;50.900;4.672;2022-08-21T12:38:39;30.90;75.70
9802;DHT22;4940;50.900;4.672;2022-08-21T12:41:17;31.10;74.40
9802;DHT22;4940;50.900;4.672;2022-08-21T12:43:48;31.10;74.80
9802;DHT22;4940;50.900;4.672;2022-08-21T12:46:19;31.10;74.30
9802;DHT22;4940;50.900;4.672;2022-08-21T12:48:50;31.10;74.00
9802;DHT22;4940;50.900;4.672;2022-08-21T12:51:23;31.10;74.60
9802;DHT22;4940;50.900;4.672;2022-08-21T12:53:52;31.10;74.00
9802;DHT22;4940;50.900;4.672;2022-08-21T12:56:26;31.10;74.50
9802;DHT22;4940;50.900;4.672;2022-08-21T12:58:55;30.80;72.90
9802;DHT22;4940;50.900;4.672;2022-08-21T13:01:29;30.80;73.30
9802;DHT22;4940;50.900;4.672;2022-08-21T13:03:59;30.70;73.70
9802;DHT22;4940;50.900;4.672;2022-08-21T13:06:31;30.60;73.00
9802;DHT22;4940;50.900;4.672;2022-08-21T13:09:04;30.60;72.80
9802;DHT22;4940;50.900;4.672;2022-08-21T13:11:33;30.50;73.00
9802;DHT22;4940;50.900;4.672;2022-08-21T13:14:02;30.50;73.90
9802;DHT22;4940;50.900;4.672;2022-08-21T13:16:31;30.50;74.10
9802;DHT22;4940;50.900;4.672;2022-08-21T13:19:00;30.10;74.00
9802;DHT22;4940;50.900;4.672;2022-08-21T13:21:32;31.00;76.30
9802;DHT22;4940;50.900;4.672;2022-08-21T13:24:15;29.70;75.80
9802;DHT22;4940;50.900;4.672;2022-08-21T13:26:44;29.50;75.30
9802;DHT22;4940;50.900;4.672;2022-08-21T13:29:13;29.50;76.10
9802;DHT22;4940;50.900;4.672;2022-08-21T13:31:42;29.30;76.50
9802;DHT22;4940;50.900;4.672;2022-08-21T13:34:14;29.30;76.60
9802;DHT22;4940;50.900;4.672;2022-08-21T13:36:44;29.20;76.90
9802;DHT22;4940;50.900;4.672;2022-08-21T13:39:14;29.20;78.30
9802;DHT22;4940;50.900;4.672;2022-08-21T13:41:46;29.00;77.50
9802;DHT22;4940;50.900;4.672;2022-08-21T13:44:18;29.30;77.90
9802;DHT22;4940;50.900;4.672;2022-08-21T13:46:46;29.40;78.00
9802;DHT22;4940;50.900;4.672;2022-08-21T13:49:15;29.50;77.60
9802;DHT22;4940;50.900;4.672;2022-08-21T13:51:43;29.50;78.10
9802;DHT22;4940;50.900;4.672;2022-08-21T13:54:21;29.60;76.90
9802;DHT22;4940;50.900;4.672;2022-08-21T13:56:50;29.60;76.90
9802;DHT22;4940;50.900;4.672;2022-08-21T13:59:25;29.50;76.60
9802;DHT22;4940;50.900;4.672;2022-08-21T14:01:55;29.30;75.80
9802;DHT22;4940;50.900;4.672;2022-08-21T14:04:29;29.30;76.50
9802;DHT22;4940;50.900;4.672;2022-08-21T14:06:58;26.40;74.10
9802;DHT22;4940;50.900;4.672;2022-08-21T14:09:29;29.20;77.50
9802;DHT22;4940;50.900;4.672;2022-08-21T14:12:01;29.10;77.00
9802;DHT22;4940;50.900;4.672;2022-08-21T14:14:31;29.10;77.10
9802;DHT22;4940;50.900;4.672;2022-08-21T14:17:00;29.00;76.90
9802;DHT22;4940;50.900;4.672;2022-08-21T14:19:37;28.90;76.90
9802;DHT22;4940;50.900;4.672;2022-08-21T14:22:23;28.90;77.60
9802;DHT22;4940;50.900;4.672;2022-08-21T14:24:59;28.70;77.60
9802;DHT22;4940;50.900;4.672;2022-08-21T14:27:29;28.60;78.30
9802;DHT22;4940;50.900;4.672;2022-08-21T14:30:02;28.50;78.40
9802;DHT22;4940;50.900;4.672;2022-08-21T14:32:37;28.50;78.90
9802;DHT22;4940;50.900;4.672;2022-08-21T14:35:05;28.60;79.00
9802;DHT22;4940;50.900;4.672;2022-08-21T14:37:33;28.40;78.90
9802;DHT22;4940;50.900;4.672;2022-08-21T14:40:00;28.70;79.50
9802;DHT22;4940;50.900;4.672;2022-08-21T14:42:30;28.70;79.20
9802;DHT22;4940;50.900;4.672;2022-08-21T14:45:01;28.90;79.00
9802;DHT22;4940;50.900;4.672;2022-08-21T14:47:28;28.60;78.40
9802;DHT22;4940;50.900;4.672;2022-08-21T14:49:55;28.90;78.20
9802;DHT22;4940;50.900;4.672;2022-08-21T14:52:23;28.50;77.40
9802;DHT22;4940;50.900;4.672;2022-08-21T14:54:50;28.50;78.10
9802;DHT22;4940;50.900;4.672;2022-08-21T14:57:17;28.50;78.10
9802;DHT22;4940;50.900;4.672;2022-08-21T14:59:46;28.40;77.90
9802;DHT22;4940;50.900;4.672;2022-08-21T15:02:14;28.40;78.10
9802;DHT22;4940;50.900;4.672;2022-08-21T15:04:41;28.40;78.10
9802;DHT22;4940;50.900;4.672;2022-08-21T15:07:08;27.30;77.20
9802;DHT22;4940;50.900;4.672;2022-08-21T15:09:36;28.20;78.00
9802;DHT22;4940;50.900;4.672;2022-08-21T15:12:04;28.10;78.40
9802;DHT22;4940;50.900;4.672;2022-08-21T15:14:35;28.10;79.20
9802;DHT22;4940;50.900;4.672;2022-08-21T15:17:05;28.00;79.50
9802;DHT22;4940;50.900;4.672;2022-08-21T15:19:33;28.00;79.70
9802;DHT22;4940;50.900;4.672;2022-08-21T15:22:00;28.00;79.50
9802;DHT22;4940;50.900;4.672;2022-08-21T15:24:28;28.00;79.60
9802;DHT22;4940;50.900;4.672;2022-08-21T15:26:55;28.00;79.60
9802;DHT22;4940;50.900;4.672;2022-08-21T15:29:23;28.00;80.00
9802;DHT22;4940;50.900;4.672;2022-08-21T15:31:53;28.00;80.10
9802;DHT22;4940;50.900;4.672;2022-08-21T15:34:22;28.00;78.90
9802;DHT22;4940;50.900;4.672;2022-08-21T15:36:50;28.00;78.80
9802;DHT22;4940;50.900;4.672;2022-08-21T15:39:17;28.00;79.50
9802;DHT22;4940;50.900;4.672;2022-08-21T15:41:45;28.00;78.80
9802;DHT22;4940;50.900;4.672;2022-08-21T15:44:12;27.90;79.00
9802;DHT22;4940;50.900;4.672;2022-08-21T15:46:40;27.90;79.70
9802;DHT22;4940;50.900;4.672;2022-08-21T15:49:08;28.00;79.90
9802;DHT22;4940;50.900;4.672;2022-08-21T15:51:37;28.00;79.50
9802;DHT22;4940;50.900;4.672;2022-08-21T15:54:04;28.00;80.50
9802;DHT22;4940;50.900;4.672;2022-08-21T15:56:34;28.10;80.70
9802;DHT22;4940;50.900;4.672;2022-08-21T15:59:06;28.70;81.50
9802;DHT22;4940;50.900;4.672;2022-08-21T16:01:34;27.90;80.10
9802;DHT22;4940;50.900;4.672;2022-08-21T16:04:03;27.90;79.90
9802;DHT22;4940;50.900;4.672;2022-08-21T16:06:31;27.90;79.50
9802;DHT22;4940;50.900;4.672;2022-08-21T16:09:00;27.80;80.50
9802;DHT22;4940;50.900;4.672;2022-08-21T16:11:28;27.80;79.80
9802;DHT22;4940;50.900;4.672;2022-08-21T16:13:55;27.80;80.80
9802;DHT22;4940;50.900;4.672;2022-08-21T16:16:23;27.80;81.40
9802;DHT22;4940;50.900;4.672;2022-08-21T16:18:51;27.70;81.70
9802;DHT22;4940;50.900;4.672;2022-08-21T16:21:19;27.70;81.90
9802;DHT22;4940;50.900;4.672;2022-08-21T16:26:16;27.60;81.60
9802;DHT22;4940;50.900;4.672;2022-08-21T16:28:45;27.60;82.50
9802;DHT22;4940;50.900;4.672;2022-08-21T16:31:12;27.50;82.50
9802;DHT22;4940;50.900;4.672;2022-08-21T16:33:42;27.50;82.50
9802;DHT22;4940;50.900;4.672;2022-08-21T16:36:11;27.40;81.80
9802;DHT22;4940;50.900;4.672;2022-08-21T16:38:39;27.40;82.50
9802;DHT22;4940;50.900;4.672;2022-08-21T16:41:11;27.30;83.50
9802;DHT22;4940;50.900;4.672;2022-08-21T16:43:42;27.30;84.00